sensor_id;sensor_type;location;lat;lon;timestamp;P1;durP1;ratioP1;P2;durP2;ratioP2
68188;SDS011;66299;47.514;19.218;2023-03-01T00:02:25;41.88;;;22.88;;
68188;SDS011;66299;47.514;19.218;2023-03-01T00:04:57;39.15;;;22.02;;
68188;SDS011;66299;47.514;19.218;2023-03-01T00:07:27;37.55;;;21.75;;
68188;SDS011;66299;47.514;19.218;2023-03-01T00:10:00;36.53;;;20.40;;
68188;SDS011;66299;47.514;19.218;2023-03-01T00:12:35;38.45;;;21.30;;
68188;SDS011;66299;47.514;19.218;2023-03-01T00:15:07;37.63;;;21.15;;
68188;SDS011;66299;47.514;19.218;2023-03-01T00:17:37;39.80;;;21.35;;
68188;SDS011;66299;47.514;19.218;2023-03-01T00:20:11;37.97;;;20.33;;
68188;SDS011;66299;47.514;19.218;2023-03-01T00:22:46;39.10;;;20.77;;
68188;SDS011;66299;47.514;19.218;2023-03-01T00:25:14;36.42;;;20.63;;
68188;SDS011;66299;47.514;19.218;2023-03-01T00:27:43;36.67;;;20.02;;
68188;SDS011;66299;47.514;19.218;2023-03-01T00:30:17;36.15;;;20.10;;
68188;SDS011;66299;47.514;19.218;2023-03-01T00:32:47;36.78;;;20.73;;
68188;SDS011;66299;47.514;19.218;2023-03-01T00:35:17;39.83;;;21.23;;
68188;SDS011;66299;47.514;19.218;2023-03-01T00:37:45;37.42;;;20.60;;
68188;SDS011;66299;47.514;19.218;2023-03-01T00:40:24;37.83;;;21.60;;
68188;SDS011;66299;47.514;19.218;2023-03-01T00:42:54;38.53;;;20.77;;
68188;SDS011;66299;47.514;19.218;2023-03-01T00:45:28;37.42;;;21.85;;
68188;SDS011;66299;47.514;19.218;2023-03-01T00:47:58;39.80;;;21.92;;
68188;SDS011;66299;47.514;19.218;2023-03-01T00:50:27;41.13;;;22.00;;
68188;SDS011;66299;47.514;19.218;2023-03-01T00:52:57;37.58;;;21.00;;
68188;SDS011;66299;47.514;19.218;2023-03-01T00:55:26;38.75;;;20.85;;
68188;SDS011;66299;47.514;19.218;2023-03-01T00:57:57;38.13;;;20.80;;
68188;SDS011;66299;47.514;19.218;2023-03-01T01:00:29;38.97;;;21.60;;
68188;SDS011;66299;47.514;19.218;2023-03-01T01:02:59;39.47;;;21.05;;
68188;SDS011;66299;47.514;19.218;2023-03-01T01:05:28;36.00;;;20.45;;
68188;SDS011;66299;47.514;19.218;2023-03-01T01:08:00;36.70;;;20.40;;
68188;SDS011;66299;47.514;19.218;2023-03-01T01:10:30;40.08;;;20.90;;
68188;SDS011;66299;47.514;19.218;2023-03-01T01:13:02;38.13;;;20.77;;
68188;SDS011;66299;47.514;19.218;2023-03-01T01:15:35;37.47;;;21.15;;
68188;SDS011;66299;47.514;19.218;2023-03-01T01:18:10;39.08;;;20.98;;
68188;SDS011;66299;47.514;19.218;2023-03-01T01:20:40;40.28;;;21.77;;
68188;SDS011;66299;47.514;19.218;2023-03-01T01:23:09;38.97;;;21.00;;
68188;SDS011;66299;47.514;19.218;2023-03-01T01:25:39;39.40;;;21.70;;
68188;SDS011;66299;47.514;19.218;2023-03-01T01:28:08;36.42;;;20.42;;
68188;SDS011;66299;47.514;19.218;2023-03-01T01:30:42;42.75;;;21.52;;
68188;SDS011;66299;47.514;19.218;2023-03-01T01:33:12;39.08;;;19.88;;
68188;SDS011;66299;47.514;19.218;2023-03-01T01:35:44;39.47;;;20.33;;
68188;SDS011;66299;47.514;19.218;2023-03-01T01:38:19;38.38;;;19.83;;
68188;SDS011;66299;47.514;19.218;2023-03-01T01:40:48;37.38;;;20.15;;
68188;SDS011;66299;47.514;19.218;2023-03-01T01:43:19;35.53;;;19.67;;
68188;SDS011;66299;47.514;19.218;2023-03-01T01:45:50;35.60;;;19.40;;
68188;SDS011;66299;47.514;19.218;2023-03-01T01:48:23;35.33;;;18.52;;
68188;SDS011;66299;47.514;19.218;2023-03-01T01:51:07;31.10;;;18.45;;
68188;SDS011;66299;47.514;19.218;2023-03-01T01:53:39;36.05;;;17.85;;
68188;SDS011;66299;47.514;19.218;2023-03-01T01:56:10;34.72;;;17.90;;
68188;SDS011;66299;47.514;19.218;2023-03-01T01:58:43;32.72;;;17.85;;
68188;SDS011;66299;47.514;19.218;2023-03-01T02:01:16;34.85;;;18.23;;
68188;SDS011;66299;47.514;19.218;2023-03-01T02:06:18;33.55;;;18.13;;
68188;SDS011;66299;47.514;19.218;2023-03-01T02:08:53;32.83;;;18.65;;
68188;SDS011;66299;47.514;19.218;2023-03-01T02:11:23;33.10;;;17.75;;
68188;SDS011;66299;47.514;19.218;2023-03-01T02:13:55;33.00;;;17.95;;
68188;SDS011;66299;47.514;19.218;2023-03-01T02:16:26;31.75;;;17.38;;
68188;SDS011;66299;47.514;19.218;2023-03-01T02:18:59;31.50;;;17.50;;
68188;SDS011;66299;47.514;19.218;2023-03-01T02:21:35;33.85;;;17.77;;
68188;SDS011;66299;47.514;19.218;2023-03-01T02:24:13;32.15;;;17.20;;
68188;SDS011;66299;47.514;19.218;2023-03-01T02:26:49;29.90;;;16.25;;
68188;SDS011;66299;47.514;19.218;2023-03-01T02:29:26;31.67;;;16.85;;
68188;SDS011;66299;47.514;19.218;2023-03-01T02:31:57;33.33;;;18.27;;
68188;SDS011;66299;47.514;19.218;2023-03-01T02:34:31;29.27;;;16.30;;
68188;SDS011;66299;47.514;19.218;2023-03-01T02:37:03;33.10;;;16.67;;
68188;SDS011;66299;47.514;19.218;2023-03-01T02:39:41;31.65;;;16.63;;
68188;SDS011;66299;47.514;19.218;2023-03-01T02:42:15;32.90;;;16.30;;
68188;SDS011;66299;47.514;19.218;2023-03-01T02:44:54;29.15;;;16.45;;
68188;SDS011;66299;47.514;19.218;2023-03-01T02:47:23;31.85;;;16.20;;
68188;SDS011;66299;47.514;19.218;2023-03-01T02:49:58;31.58;;;16.25;;
68188;SDS011;66299;47.514;19.218;2023-03-01T02:52:34;30.13;;;16.23;;
68188;SDS011;66299;47.514;19.218;2023-03-01T02:55:11;32.33;;;17.80;;
68188;SDS011;66299;47.514;19.218;2023-03-01T02:57:44;30.67;;;17.40;;
68188;SDS011;66299;47.514;19.218;2023-03-01T03:00:19;33.88;;;17.80;;
68188;SDS011;66299;47.514;19.218;2023-03-01T03:02:52;33.78;;;18.05;;
68188;SDS011;66299;47.514;19.218;2023-03-01T03:05:27;35.20;;;19.00;;
68188;SDS011;66299;47.514;19.218;2023-03-01T03:08:01;36.45;;;18.15;;
68188;SDS011;66299;47.514;19.218;2023-03-01T03:10:31;33.08;;;16.88;;
68188;SDS011;66299;47.514;19.218;2023-03-01T03:13:03;32.45;;;17.98;;
68188;SDS011;66299;47.514;19.218;2023-03-01T03:15:35;32.60;;;18.15;;
68188;SDS011;66299;47.514;19.218;2023-03-01T03:18:06;33.85;;;18.20;;
68188;SDS011;66299;47.514;19.218;2023-03-01T03:20:42;34.97;;;17.27;;
68188;SDS011;66299;47.514;19.218;2023-03-01T03:23:15;32.28;;;16.75;;
68188;SDS011;66299;47.514;19.218;2023-03-01T03:25:44;31.10;;;16.45;;
68188;SDS011;66299;47.514;19.218;2023-03-01T03:28:15;33.30;;;16.67;;
68188;SDS011;66299;47.514;19.218;2023-03-01T03:30:48;32.95;;;16.05;;
68188;SDS011;66299;47.514;19.218;2023-03-01T03:33:17;35.22;;;16.42;;
68188;SDS011;66299;47.514;19.218;2023-03-01T03:35:47;31.67;;;16.45;;
68188;SDS011;66299;47.514;19.218;2023-03-01T03:38:17;31.73;;;16.25;;
68188;SDS011;66299;47.514;19.218;2023-03-01T03:40:49;28.83;;;16.30;;
68188;SDS011;66299;47.514;19.218;2023-03-01T03:43:20;31.42;;;16.27;;
68188;SDS011;66299;47.514;19.218;2023-03-01T03:45:50;28.75;;;15.98;;
68188;SDS011;66299;47.514;19.218;2023-03-01T03:48:22;29.10;;;15.75;;
68188;SDS011;66299;47.514;19.218;2023-03-01T03:50:53;29.83;;;16.00;;
68188;SDS011;66299;47.514;19.218;2023-03-01T03:53:22;28.90;;;15.93;;
68188;SDS011;66299;47.514;19.218;2023-03-01T03:55:55;30.00;;;16.40;;
68188;SDS011;66299;47.514;19.218;2023-03-01T03:58:26;30.55;;;15.80;;
68188;SDS011;66299;47.514;19.218;2023-03-01T04:00:59;27.13;;;15.00;;
68188;SDS011;66299;47.514;19.218;2023-03-01T04:03:30;27.38;;;15.45;;
68188;SDS011;66299;47.514;19.218;2023-03-01T04:06:01;29.85;;;16.73;;
68188;SDS011;66299;47.514;19.218;2023-03-01T04:11:04;28.80;;;14.38;;
68188;SDS011;66299;47.514;19.218;2023-03-01T04:13:47;30.08;;;15.23;;
68188;SDS011;66299;47.514;19.218;2023-03-01T04:16:18;26.77;;;15.35;;
68188;SDS011;66299;47.514;19.218;2023-03-01T04:18:49;27.05;;;15.20;;
68188;SDS011;66299;47.514;19.218;2023-03-01T04:21:22;28.52;;;15.52;;
68188;SDS011;66299;47.514;19.218;2023-03-01T04:23:55;28.13;;;15.48;;
68188;SDS011;66299;47.514;19.218;2023-03-01T04:26:26;26.20;;;14.68;;
68188;SDS011;66299;47.514;19.218;2023-03-01T04:28:56;30.48;;;15.15;;
68188;SDS011;66299;47.514;19.218;2023-03-01T04:31:27;30.17;;;16.23;;
68188;SDS011;66299;47.514;19.218;2023-03-01T04:34:02;30.20;;;16.88;;
68188;SDS011;66299;47.514;19.218;2023-03-01T04:36:36;32.78;;;17.08;;
68188;SDS011;66299;47.514;19.218;2023-03-01T04:39:09;30.15;;;16.02;;
68188;SDS011;66299;47.514;19.218;2023-03-01T04:41:39;30.92;;;15.95;;
68188;SDS011;66299;47.514;19.218;2023-03-01T04:44:12;29.58;;;16.20;;
68188;SDS011;66299;47.514;19.218;2023-03-01T04:46:45;28.90;;;15.88;;
68188;SDS011;66299;47.514;19.218;2023-03-01T04:49:18;29.55;;;15.95;;
68188;SDS011;66299;47.514;19.218;2023-03-01T04:51:47;28.83;;;15.55;;
68188;SDS011;66299;47.514;19.218;2023-03-01T04:54:17;31.50;;;16.77;;
68188;SDS011;66299;47.514;19.218;2023-03-01T04:56:46;30.60;;;16.13;;
68188;SDS011;66299;47.514;19.218;2023-03-01T04:59:16;29.80;;;15.93;;
68188;SDS011;66299;47.514;19.218;2023-03-01T05:01:51;32.58;;;16.73;;
68188;SDS011;66299;47.514;19.218;2023-03-01T05:04:22;34.63;;;17.35;;
68188;SDS011;66299;47.514;19.218;2023-03-01T05:06:58;31.40;;;16.90;;
68188;SDS011;66299;47.514;19.218;2023-03-01T05:09:31;29.92;;;17.35;;
68188;SDS011;66299;47.514;19.218;2023-03-01T05:12:00;32.35;;;17.00;;
68188;SDS011;66299;47.514;19.218;2023-03-01T05:14:32;32.15;;;17.73;;
68188;SDS011;66299;47.514;19.218;2023-03-01T05:17:08;32.90;;;17.77;;
68188;SDS011;66299;47.514;19.218;2023-03-01T05:22:09;32.05;;;16.45;;
68188;SDS011;66299;47.514;19.218;2023-03-01T05:24:39;29.20;;;16.48;;
68188;SDS011;66299;47.514;19.218;2023-03-01T05:27:08;31.73;;;16.88;;
68188;SDS011;66299;47.514;19.218;2023-03-01T05:29:40;31.63;;;16.38;;
68188;SDS011;66299;47.514;19.218;2023-03-01T05:32:11;29.25;;;16.17;;
68188;SDS011;66299;47.514;19.218;2023-03-01T05:34:42;31.80;;;16.17;;
68188;SDS011;66299;47.514;19.218;2023-03-01T05:37:15;29.35;;;15.48;;
68188;SDS011;66299;47.514;19.218;2023-03-01T05:39:46;26.38;;;14.60;;
68188;SDS011;66299;47.514;19.218;2023-03-01T05:42:17;31.17;;;15.45;;
68188;SDS011;66299;47.514;19.218;2023-03-01T05:44:46;28.83;;;15.30;;
68188;SDS011;66299;47.514;19.218;2023-03-01T05:47:17;30.48;;;15.57;;
68188;SDS011;66299;47.514;19.218;2023-03-01T05:49:49;30.92;;;15.43;;
68188;SDS011;66299;47.514;19.218;2023-03-01T05:52:18;34.78;;;15.20;;
68188;SDS011;66299;47.514;19.218;2023-03-01T05:54:47;28.35;;;15.80;;
68188;SDS011;66299;47.514;19.218;2023-03-01T05:57:18;31.17;;;16.08;;
68188;SDS011;66299;47.514;19.218;2023-03-01T06:02:18;29.33;;;15.63;;
68188;SDS011;66299;47.514;19.218;2023-03-01T06:04:51;28.98;;;15.85;;
68188;SDS011;66299;47.514;19.218;2023-03-01T06:07:19;33.72;;;15.98;;
68188;SDS011;66299;47.514;19.218;2023-03-01T06:09:48;32.92;;;15.95;;
68188;SDS011;66299;47.514;19.218;2023-03-01T06:12:16;48.47;;;21.60;;
68188;SDS011;66299;47.514;19.218;2023-03-01T06:14:47;59.00;;;25.83;;
68188;SDS011;66299;47.514;19.218;2023-03-01T06:17:15;52.70;;;24.30;;
68188;SDS011;66299;47.514;19.218;2023-03-01T06:19:45;42.40;;;21.05;;
68188;SDS011;66299;47.514;19.218;2023-03-01T06:22:19;37.15;;;18.67;;
68188;SDS011;66299;47.514;19.218;2023-03-01T06:24:52;36.72;;;17.75;;
68188;SDS011;66299;47.514;19.218;2023-03-01T06:27:23;29.30;;;15.82;;
68188;SDS011;66299;47.514;19.218;2023-03-01T06:29:59;32.40;;;15.93;;
68188;SDS011;66299;47.514;19.218;2023-03-01T06:32:32;28.10;;;15.07;;
68188;SDS011;66299;47.514;19.218;2023-03-01T06:35:05;27.77;;;15.15;;
68188;SDS011;66299;47.514;19.218;2023-03-01T06:37:40;29.65;;;15.27;;
68188;SDS011;66299;47.514;19.218;2023-03-01T06:40:12;28.63;;;15.07;;
68188;SDS011;66299;47.514;19.218;2023-03-01T06:42:47;33.00;;;15.93;;
68188;SDS011;66299;47.514;19.218;2023-03-01T06:45:16;28.98;;;15.18;;
68188;SDS011;66299;47.514;19.218;2023-03-01T06:47:46;27.35;;;15.82;;
68188;SDS011;66299;47.514;19.218;2023-03-01T06:50:17;30.58;;;16.13;;
68188;SDS011;66299;47.514;19.218;2023-03-01T06:52:46;31.95;;;16.33;;
68188;SDS011;66299;47.514;19.218;2023-03-01T06:55:15;29.35;;;14.15;;
68188;SDS011;66299;47.514;19.218;2023-03-01T06:57:45;30.48;;;16.05;;
68188;SDS011;66299;47.514;19.218;2023-03-01T07:00:15;31.30;;;15.50;;
68188;SDS011;66299;47.514;19.218;2023-03-01T07:02:46;35.28;;;16.15;;
68188;SDS011;66299;47.514;19.218;2023-03-01T07:05:18;30.83;;;15.00;;
68188;SDS011;66299;47.514;19.218;2023-03-01T07:07:47;31.38;;;15.82;;
68188;SDS011;66299;47.514;19.218;2023-03-01T07:10:17;30.90;;;15.15;;
68188;SDS011;66299;47.514;19.218;2023-03-01T07:12:50;29.80;;;15.55;;
68188;SDS011;66299;47.514;19.218;2023-03-01T07:15:23;28.63;;;15.27;;
68188;SDS011;66299;47.514;19.218;2023-03-01T07:17:55;37.65;;;15.05;;
68188;SDS011;66299;47.514;19.218;2023-03-01T07:20:25;29.40;;;13.43;;
68188;SDS011;66299;47.514;19.218;2023-03-01T07:22:55;26.35;;;13.55;;
68188;SDS011;66299;47.514;19.218;2023-03-01T07:25:25;33.53;;;14.30;;
68188;SDS011;66299;47.514;19.218;2023-03-01T07:27:56;25.08;;;13.23;;
68188;SDS011;66299;47.514;19.218;2023-03-01T07:30:30;26.35;;;14.02;;
68188;SDS011;66299;47.514;19.218;2023-03-01T07:32:59;30.77;;;12.95;;
68188;SDS011;66299;47.514;19.218;2023-03-01T07:35:29;28.08;;;14.68;;
68188;SDS011;66299;47.514;19.218;2023-03-01T07:38:09;28.90;;;15.98;;
68188;SDS011;66299;47.514;19.218;2023-03-01T07:40:39;34.35;;;18.35;;
68188;SDS011;66299;47.514;19.218;2023-03-01T07:43:08;31.23;;;16.92;;
68188;SDS011;66299;47.514;19.218;2023-03-01T07:45:37;26.65;;;15.10;;
68188;SDS011;66299;47.514;19.218;2023-03-01T07:48:08;32.13;;;15.30;;
68188;SDS011;66299;47.514;19.218;2023-03-01T07:50:38;27.45;;;13.38;;
68188;SDS011;66299;47.514;19.218;2023-03-01T07:53:09;26.02;;;15.15;;
68188;SDS011;66299;47.514;19.218;2023-03-01T07:55:38;28.35;;;14.40;;
68188;SDS011;66299;47.514;19.218;2023-03-01T07:58:10;24.40;;;13.10;;
68188;SDS011;66299;47.514;19.218;2023-03-01T08:00:39;25.30;;;13.73;;
68188;SDS011;66299;47.514;19.218;2023-03-01T08:03:10;22.23;;;11.80;;
68188;SDS011;66299;47.514;19.218;2023-03-01T08:05:43;26.23;;;13.18;;
68188;SDS011;66299;47.514;19.218;2023-03-01T08:08:12;22.08;;;11.55;;
68188;SDS011;66299;47.514;19.218;2023-03-01T08:10:44;21.98;;;10.80;;
68188;SDS011;66299;47.514;19.218;2023-03-01T08:13:15;21.88;;;10.65;;
68188;SDS011;66299;47.514;19.218;2023-03-01T08:15:49;21.08;;;10.80;;
68188;SDS011;66299;47.514;19.218;2023-03-01T08:18:18;21.60;;;10.80;;
68188;SDS011;66299;47.514;19.218;2023-03-01T08:20:49;23.60;;;11.27;;
68188;SDS011;66299;47.514;19.218;2023-03-01T08:23:19;23.63;;;10.88;;
68188;SDS011;66299;47.514;19.218;2023-03-01T08:25:47;21.80;;;10.95;;
68188;SDS011;66299;47.514;19.218;2023-03-01T08:28:16;25.73;;;11.15;;
68188;SDS011;66299;47.514;19.218;2023-03-01T08:30:45;20.23;;;11.18;;
68188;SDS011;66299;47.514;19.218;2023-03-01T08:33:13;19.83;;;10.82;;
68188;SDS011;66299;47.514;19.218;2023-03-01T08:35:44;20.63;;;10.82;;
68188;SDS011;66299;47.514;19.218;2023-03-01T08:38:15;21.92;;;10.82;;
68188;SDS011;66299;47.514;19.218;2023-03-01T08:40:44;21.52;;;11.02;;
68188;SDS011;66299;47.514;19.218;2023-03-01T08:43:12;31.75;;;11.45;;
68188;SDS011;66299;47.514;19.218;2023-03-01T08:45:41;18.50;;;9.88;;
68188;SDS011;66299;47.514;19.218;2023-03-01T08:48:09;18.67;;;9.70;;
68188;SDS011;66299;47.514;19.218;2023-03-01T08:50:38;20.35;;;9.98;;
68188;SDS011;66299;47.514;19.218;2023-03-01T08:53:09;20.95;;;10.10;;
68188;SDS011;66299;47.514;19.218;2023-03-01T08:55:40;21.33;;;10.25;;
68188;SDS011;66299;47.514;19.218;2023-03-01T08:58:09;19.08;;;9.73;;
68188;SDS011;66299;47.514;19.218;2023-03-01T09:00:40;19.92;;;9.88;;
68188;SDS011;66299;47.514;19.218;2023-03-01T09:03:09;17.58;;;9.07;;
68188;SDS011;66299;47.514;19.218;2023-03-01T09:05:38;17.05;;;8.68;;
68188;SDS011;66299;47.514;19.218;2023-03-01T09:08:07;15.80;;;7.90;;
68188;SDS011;66299;47.514;19.218;2023-03-01T09:10:37;20.02;;;8.65;;
68188;SDS011;66299;47.514;19.218;2023-03-01T09:13:09;16.90;;;8.43;;
68188;SDS011;66299;47.514;19.218;2023-03-01T09:15:38;15.95;;;7.82;;
68188;SDS011;66299;47.514;19.218;2023-03-01T09:18:07;18.75;;;8.32;;
68188;SDS011;66299;47.514;19.218;2023-03-01T09:20:35;17.90;;;8.68;;
68188;SDS011;66299;47.514;19.218;2023-03-01T09:23:05;18.58;;;8.40;;
68188;SDS011;66299;47.514;19.218;2023-03-01T09:25:34;18.38;;;8.48;;
68188;SDS011;66299;47.514;19.218;2023-03-01T09:28:06;20.85;;;8.82;;
68188;SDS011;66299;47.514;19.218;2023-03-01T09:30:58;19.35;;;8.10;;
68188;SDS011;66299;47.514;19.218;2023-03-01T09:33:28;15.82;;;8.10;;
68188;SDS011;66299;47.514;19.218;2023-03-01T09:35:57;16.08;;;7.60;;
68188;SDS011;66299;47.514;19.218;2023-03-01T09:38:27;16.63;;;7.60;;
68188;SDS011;66299;47.514;19.218;2023-03-01T09:40:56;15.48;;;7.40;;
68188;SDS011;66299;47.514;19.218;2023-03-01T09:43:27;15.48;;;7.28;;
68188;SDS011;66299;47.514;19.218;2023-03-01T09:46:05;17.13;;;7.70;;
68188;SDS011;66299;47.514;19.218;2023-03-01T09:48:39;18.83;;;7.72;;
68188;SDS011;66299;47.514;19.218;2023-03-01T09:51:12;15.57;;;8.32;;
68188;SDS011;66299;47.514;19.218;2023-03-01T09:53:45;17.13;;;7.95;;
68188;SDS011;66299;47.514;19.218;2023-03-01T09:56:16;21.63;;;8.13;;
68188;SDS011;66299;47.514;19.218;2023-03-01T09:58:49;16.00;;;8.07;;
68188;SDS011;66299;47.514;19.218;2023-03-01T10:01:30;20.17;;;8.60;;
68188;SDS011;66299;47.514;19.218;2023-03-01T10:04:11;19.92;;;9.02;;
68188;SDS011;66299;47.514;19.218;2023-03-01T10:06:55;17.67;;;9.18;;
68188;SDS011;66299;47.514;19.218;2023-03-01T10:09:34;17.70;;;9.50;;
68188;SDS011;66299;47.514;19.218;2023-03-01T10:12:08;17.73;;;9.27;;
68188;SDS011;66299;47.514;19.218;2023-03-01T10:14:39;17.65;;;9.20;;
68188;SDS011;66299;47.514;19.218;2023-03-01T10:17:17;22.13;;;9.82;;
68188;SDS011;66299;47.514;19.218;2023-03-01T10:19:56;18.55;;;9.15;;
68188;SDS011;66299;47.514;19.218;2023-03-01T10:22:40;17.25;;;9.48;;
68188;SDS011;66299;47.514;19.218;2023-03-01T10:25:08;19.00;;;10.15;;
68188;SDS011;66299;47.514;19.218;2023-03-01T10:27:46;19.15;;;10.23;;
68188;SDS011;66299;47.514;19.218;2023-03-01T10:30:20;18.27;;;9.75;;
68188;SDS011;66299;47.514;19.218;2023-03-01T10:32:53;19.17;;;10.27;;
68188;SDS011;66299;47.514;19.218;2023-03-01T10:35:25;21.50;;;10.18;;
68188;SDS011;66299;47.514;19.218;2023-03-01T10:37:56;21.00;;;9.70;;
68188;SDS011;66299;47.514;19.218;2023-03-01T10:40:27;20.17;;;10.70;;
68188;SDS011;66299;47.514;19.218;2023-03-01T10:42:57;19.23;;;9.40;;
68188;SDS011;66299;47.514;19.218;2023-03-01T10:45:33;16.10;;;8.65;;
68188;SDS011;66299;47.514;19.218;2023-03-01T10:48:10;18.20;;;9.35;;
68188;SDS011;66299;47.514;19.218;2023-03-01T10:50:42;18.40;;;9.10;;
68188;SDS011;66299;47.514;19.218;2023-03-01T10:53:22;19.05;;;10.48;;
68188;SDS011;66299;47.514;19.218;2023-03-01T10:55:59;22.17;;;10.52;;
68188;SDS011;66299;47.514;19.218;2023-03-01T10:58:29;21.77;;;10.52;;
68188;SDS011;66299;47.514;19.218;2023-03-01T11:00:59;18.58;;;10.52;;
68188;SDS011;66299;47.514;19.218;2023-03-01T11:03:31;19.20;;;9.88;;
68188;SDS011;66299;47.514;19.218;2023-03-01T11:06:04;18.30;;;10.15;;
68188;SDS011;66299;47.514;19.218;2023-03-01T11:08:47;18.27;;;10.18;;
68188;SDS011;66299;47.514;19.218;2023-03-01T11:11:20;22.83;;;10.50;;
68188;SDS011;66299;47.514;19.218;2023-03-01T11:13:59;19.45;;;9.98;;
68188;SDS011;66299;47.514;19.218;2023-03-01T11:19:29;16.80;;;9.25;;
68188;SDS011;66299;47.514;19.218;2023-03-01T11:22:00;18.77;;;10.35;;
68188;SDS011;66299;47.514;19.218;2023-03-01T11:27:04;17.90;;;9.75;;
68188;SDS011;66299;47.514;19.218;2023-03-01T11:29:43;16.00;;;8.18;;
68188;SDS011;66299;47.514;19.218;2023-03-01T11:32:18;16.48;;;8.35;;
68188;SDS011;66299;47.514;19.218;2023-03-01T11:34:52;21.58;;;9.02;;
68188;SDS011;66299;47.514;19.218;2023-03-01T11:37:28;17.40;;;8.88;;
68188;SDS011;66299;47.514;19.218;2023-03-01T11:40:14;16.83;;;8.57;;
68188;SDS011;66299;47.514;19.218;2023-03-01T11:42:56;16.17;;;7.88;;
68188;SDS011;66299;47.514;19.218;2023-03-01T11:45:36;18.58;;;8.95;;
68188;SDS011;66299;47.514;19.218;2023-03-01T11:48:25;16.73;;;8.00;;
68188;SDS011;66299;47.514;19.218;2023-03-01T11:51:18;20.67;;;7.60;;
68188;SDS011;66299;47.514;19.218;2023-03-01T11:53:56;15.48;;;7.85;;
68188;SDS011;66299;47.514;19.218;2023-03-01T11:56:35;13.90;;;7.20;;
68188;SDS011;66299;47.514;19.218;2023-03-01T11:59:17;15.95;;;7.40;;
68188;SDS011;66299;47.514;19.218;2023-03-01T12:02:02;16.38;;;7.10;;
68188;SDS011;66299;47.514;19.218;2023-03-01T12:04:54;14.55;;;7.40;;
68188;SDS011;66299;47.514;19.218;2023-03-01T12:07:45;18.65;;;7.25;;
68188;SDS011;66299;47.514;19.218;2023-03-01T12:10:26;20.63;;;6.72;;
68188;SDS011;66299;47.514;19.218;2023-03-01T12:15:53;14.25;;;6.70;;
68188;SDS011;66299;47.514;19.218;2023-03-01T12:18:39;13.85;;;6.85;;
68188;SDS011;66299;47.514;19.218;2023-03-01T12:21:23;13.73;;;6.57;;
68188;SDS011;66299;47.514;19.218;2023-03-01T12:24:13;14.25;;;6.60;;
68188;SDS011;66299;47.514;19.218;2023-03-01T12:26:54;15.18;;;6.30;;
68188;SDS011;66299;47.514;19.218;2023-03-01T12:29:36;14.30;;;6.43;;
68188;SDS011;66299;47.514;19.218;2023-03-01T12:32:23;17.48;;;7.03;;
68188;SDS011;66299;47.514;19.218;2023-03-01T12:35:16;14.40;;;7.03;;
68188;SDS011;66299;47.514;19.218;2023-03-01T12:38:07;13.40;;;6.40;;
68188;SDS011;66299;47.514;19.218;2023-03-01T12:43:43;17.15;;;6.72;;
68188;SDS011;66299;47.514;19.218;2023-03-01T12:46:28;14.25;;;6.50;;
68188;SDS011;66299;47.514;19.218;2023-03-01T12:49:09;17.63;;;6.15;;
68188;SDS011;66299;47.514;19.218;2023-03-01T12:51:42;16.17;;;6.70;;
68188;SDS011;66299;47.514;19.218;2023-03-01T12:54:19;14.13;;;6.55;;
68188;SDS011;66299;47.514;19.218;2023-03-01T12:56:54;12.93;;;5.78;;
68188;SDS011;66299;47.514;19.218;2023-03-01T12:59:26;16.17;;;6.13;;
68188;SDS011;66299;47.514;19.218;2023-03-01T13:02:02;13.07;;;5.65;;
68188;SDS011;66299;47.514;19.218;2023-03-01T13:04:40;12.25;;;5.25;;
68188;SDS011;66299;47.514;19.218;2023-03-01T13:07:25;12.75;;;5.57;;
68188;SDS011;66299;47.514;19.218;2023-03-01T13:10:10;58.95;;;7.03;;
68188;SDS011;66299;47.514;19.218;2023-03-01T13:12:53;18.67;;;5.57;;
68188;SDS011;66299;47.514;19.218;2023-03-01T13:15:31;10.93;;;4.95;;
68188;SDS011;66299;47.514;19.218;2023-03-01T13:18:11;11.93;;;4.90;;
68188;SDS011;66299;47.514;19.218;2023-03-01T13:21:04;14.05;;;5.22;;
68188;SDS011;66299;47.514;19.218;2023-03-01T13:23:34;11.43;;;5.28;;
68188;SDS011;66299;47.514;19.218;2023-03-01T13:26:12;10.57;;;4.32;;
68188;SDS011;66299;47.514;19.218;2023-03-01T13:28:50;10.82;;;4.80;;
68188;SDS011;66299;47.514;19.218;2023-03-01T13:34:41;11.98;;;4.38;;
68188;SDS011;66299;47.514;19.218;2023-03-01T13:37:27;11.38;;;4.35;;
68188;SDS011;66299;47.514;19.218;2023-03-01T13:40:01;12.40;;;4.55;;
68188;SDS011;66299;47.514;19.218;2023-03-01T13:42:48;10.75;;;4.60;;
68188;SDS011;66299;47.514;19.218;2023-03-01T13:45:34;12.68;;;5.40;;
68188;SDS011;66299;47.514;19.218;2023-03-01T13:48:08;12.80;;;4.90;;
68188;SDS011;66299;47.514;19.218;2023-03-01T13:50:44;13.23;;;4.97;;
68188;SDS011;66299;47.514;19.218;2023-03-01T13:53:16;12.80;;;5.45;;
68188;SDS011;66299;47.514;19.218;2023-03-01T13:55:46;14.10;;;5.70;;
68188;SDS011;66299;47.514;19.218;2023-03-01T13:58:21;13.10;;;5.45;;
68188;SDS011;66299;47.514;19.218;2023-03-01T14:00:57;11.93;;;5.30;;
68188;SDS011;66299;47.514;19.218;2023-03-01T14:03:27;12.05;;;5.47;;
68188;SDS011;66299;47.514;19.218;2023-03-01T14:05:59;11.63;;;5.50;;
68188;SDS011;66299;47.514;19.218;2023-03-01T14:08:41;14.63;;;6.05;;
68188;SDS011;66299;47.514;19.218;2023-03-01T14:11:21;15.45;;;5.90;;
68188;SDS011;66299;47.514;19.218;2023-03-01T14:17:23;12.35;;;5.53;;
68188;SDS011;66299;47.514;19.218;2023-03-01T14:20:14;11.02;;;4.97;;
68188;SDS011;66299;47.514;19.218;2023-03-01T14:22:47;18.83;;;7.45;;
68188;SDS011;66299;47.514;19.218;2023-03-01T14:25:20;13.35;;;5.63;;
68188;SDS011;66299;47.514;19.218;2023-03-01T14:27:52;15.48;;;6.53;;
68188;SDS011;66299;47.514;19.218;2023-03-01T14:30:31;14.15;;;6.00;;
68188;SDS011;66299;47.514;19.218;2023-03-01T14:33:06;18.38;;;6.43;;
68188;SDS011;66299;47.514;19.218;2023-03-01T14:35:57;15.27;;;5.80;;
68188;SDS011;66299;47.514;19.218;2023-03-01T14:38:32;12.35;;;6.03;;
68188;SDS011;66299;47.514;19.218;2023-03-01T14:41:03;17.67;;;5.75;;
68188;SDS011;66299;47.514;19.218;2023-03-01T14:43:33;15.95;;;6.07;;
68188;SDS011;66299;47.514;19.218;2023-03-01T14:46:16;15.80;;;5.45;;
68188;SDS011;66299;47.514;19.218;2023-03-01T14:48:49;14.57;;;5.57;;
68188;SDS011;66299;47.514;19.218;2023-03-01T14:51:19;19.45;;;5.38;;
68188;SDS011;66299;47.514;19.218;2023-03-01T14:53:48;16.77;;;5.95;;
68188;SDS011;66299;47.514;19.218;2023-03-01T14:56:17;16.45;;;6.03;;
68188;SDS011;66299;47.514;19.218;2023-03-01T14:58:50;14.90;;;5.93;;
68188;SDS011;66299;47.514;19.218;2023-03-01T15:01:20;16.38;;;5.53;;
68188;SDS011;66299;47.514;19.218;2023-03-01T15:03:52;12.35;;;5.55;;
68188;SDS011;66299;47.514;19.218;2023-03-01T15:06:21;14.02;;;5.65;;
68188;SDS011;66299;47.514;19.218;2023-03-01T15:08:52;14.93;;;5.93;;
68188;SDS011;66299;47.514;19.218;2023-03-01T15:11:24;14.38;;;5.70;;
68188;SDS011;66299;47.514;19.218;2023-03-01T15:13:56;17.00;;;5.95;;
68188;SDS011;66299;47.514;19.218;2023-03-01T15:16:26;15.73;;;5.47;;
68188;SDS011;66299;47.514;19.218;2023-03-01T15:18:59;15.25;;;5.90;;